createdAt,value
2022-08-10T00:00:02.228Z,3.13
2022-08-10T00:02:58.128Z,2.78
2022-08-10T00:05:52.816Z,3.10
2022-08-10T00:08:41.709Z,3.15
2022-08-10T00:11:29.523Z,3.47
2022-08-10T00:14:18.001Z,3.00
2022-08-10T00:17:05.812Z,3.38
2022-08-10T00:20:02.477Z,3.45
2022-08-10T00:22:57.883Z,2.88
2022-08-10T00:25:46.175Z,2.83
2022-08-10T00:28:34.322Z,3.05
2022-08-10T00:31:22.108Z,3.40
2022-08-10T00:34:10.357Z,3.67
2022-08-10T00:36:59.246Z,3.15
2022-08-10T00:39:47.804Z,3.45
2022-08-10T00:42:35.872Z,3.30
2022-08-10T00:45:23.949Z,3.78
2022-08-10T00:48:11.766Z,3.40
2022-08-10T00:51:00.262Z,3.25
2022-08-10T00:53:48.419Z,3.53
2022-08-10T00:57:17.638Z,3.55
2022-08-10T00:59:58.488Z,2.97
2022-08-10T01:02:47.760Z,3.17
2022-08-10T01:05:53.821Z,3.55
2022-08-10T01:09:57.396Z,3.30
2022-08-10T01:13:34.007Z,3.80
2022-08-10T01:16:35.093Z,3.17
2022-08-10T01:19:47.685Z,3.05
2022-08-10T01:23:00.452Z,3.45
2022-08-10T01:26:32.211Z,2.95
2022-08-10T01:29:44.534Z,3.47
2022-08-10T01:33:13.463Z,3.58
2022-08-10T01:36:16.899Z,3.30
2022-08-10T01:39:06.723Z,3.45
2022-08-10T01:41:58.825Z,3.30
2022-08-10T01:44:53.848Z,3.90
2022-08-10T01:48:02.106Z,3.17
2022-08-10T01:51:00.086Z,3.38
2022-08-10T01:54:00.729Z,3.60
2022-08-10T01:56:53.117Z,3.60
2022-08-10T01:59:43.515Z,3.40
2022-08-10T02:02:48.869Z,3.22
2022-08-10T02:05:40.655Z,3.17
2022-08-10T02:08:30.536Z,3.10
2022-08-10T02:11:20.139Z,3.50
2022-08-10T02:14:09.258Z,3.65
2022-08-10T02:16:58.106Z,3.10
2022-08-10T02:19:48.140Z,3.33
2022-08-10T02:22:39.362Z,3.40
2022-08-10T02:25:42.452Z,3.40
2022-08-10T02:28:34.218Z,4.20
2022-08-10T02:31:25.088Z,3.65
2022-08-10T02:34:16.859Z,3.80
2022-08-10T02:37:10.820Z,3.58
2022-08-10T02:40:00.004Z,3.53
2022-08-10T02:45:22.917Z,3.22
2022-08-10T02:46:11.035Z,3.47
2022-08-10T02:49:03.637Z,3.08
2022-08-10T02:52:07.710Z,3.20
2022-08-10T02:55:17.050Z,5.35
2022-08-10T02:58:20.208Z,3.92
2022-08-10T03:01:14.656Z,5.15
2022-08-10T03:04:08.048Z,3.58
2022-08-10T03:07:05.298Z,3.67
2022-08-10T03:09:54.398Z,3.60
2022-08-10T03:12:44.214Z,3.92
2022-08-10T03:15:34.782Z,3.80
2022-08-10T03:18:24.646Z,3.42
2022-08-10T03:21:14.661Z,3.55
2022-08-10T03:24:30.188Z,3.40
2022-08-10T03:27:14.624Z,3.88
2022-08-10T03:30:31.841Z,3.60
2022-08-10T03:33:13.991Z,3.90
2022-08-10T03:36:40.366Z,3.42
2022-08-10T03:39:10.542Z,4.13
2022-08-10T03:42:03.085Z,3.83
2022-08-10T03:44:52.842Z,4.55
2022-08-10T03:47:42.845Z,3.72
2022-08-10T03:50:51.580Z,3.92
2022-08-10T03:54:04.975Z,4.35
2022-08-10T03:56:48.565Z,3.70
2022-08-10T03:59:36.946Z,4.13
2022-08-10T04:02:46.824Z,4.38
2022-08-10T04:05:38.188Z,4.38
2022-08-10T04:08:26.762Z,4.35
2022-08-10T04:11:14.526Z,4.68
2022-08-10T04:14:02.838Z,4.88
2022-08-10T04:16:50.624Z,4.45
2022-08-10T04:19:46.052Z,4.07
2022-08-10T04:22:35.123Z,4.10
2022-08-10T04:25:25.262Z,4.22
2022-08-10T04:28:13.371Z,4.45
2022-08-10T04:31:04.437Z,4.50
2022-08-10T04:33:54.165Z,3.83
2022-08-10T04:36:43.779Z,4.75
2022-08-10T04:39:31.648Z,4.20
2022-08-10T04:42:19.544Z,4.65
2022-08-10T04:45:11.798Z,4.72
2022-08-10T04:48:02.914Z,5.20
2022-08-10T04:50:51.801Z,4.50
2022-08-10T04:54:04.248Z,4.97
2022-08-10T04:56:47.705Z,6.72
2022-08-10T04:59:35.475Z,5.25
2022-08-10T05:02:30.169Z,5.93
2022-08-10T05:05:20.071Z,7.18
2022-08-10T05:08:07.863Z,4.85
2022-08-10T05:10:55.656Z,4.57
2022-08-10T05:13:43.452Z,4.47
2022-08-10T05:16:32.344Z,4.10
2022-08-10T05:19:25.085Z,3.55
2022-08-10T05:22:28.309Z,4.63
2022-08-10T05:25:19.960Z,4.70
2022-08-10T05:28:07.779Z,4.30
2022-08-10T05:30:55.583Z,4.60
2022-08-10T05:33:43.416Z,4.07
2022-08-10T05:36:33.896Z,5.05
2022-08-10T05:39:30.415Z,4.75
2022-08-10T05:42:21.619Z,4.38
2022-08-10T05:45:22.034Z,4.85
2022-08-10T05:48:55.005Z,4.13
2022-08-10T05:51:19.643Z,4.10
2022-08-10T05:54:14.884Z,3.65
2022-08-10T06:00:34.603Z,4.25
2022-08-10T06:03:14.936Z,4.35
2022-08-10T06:06:08.604Z,4.20
2022-08-10T06:08:59.036Z,4.45
2022-08-10T06:12:28.024Z,3.72
2022-08-10T06:15:05.679Z,4.00
2022-08-10T06:18:01.945Z,3.90
2022-08-10T06:20:51.574Z,3.67
2022-08-10T06:23:40.023Z,4.18
2022-08-10T06:26:27.812Z,4.20
2022-08-10T06:29:19.388Z,4.47
2022-08-10T06:32:14.142Z,3.60
2022-08-10T06:35:04.414Z,3.40
2022-08-10T06:37:55.895Z,4.03
2022-08-10T06:40:46.255Z,3.60
2022-08-10T06:43:35.441Z,3.58
2022-08-10T06:46:25.354Z,3.60
2022-08-10T06:49:18.419Z,3.90
2022-08-10T06:52:18.168Z,3.38
2022-08-10T06:55:11.291Z,3.25
2022-08-10T06:58:01.114Z,3.53
2022-08-10T07:00:52.085Z,3.35
2022-08-10T07:03:54.148Z,3.85
2022-08-10T07:06:46.443Z,3.13
2022-08-10T07:09:40.092Z,3.40
2022-08-10T07:12:29.654Z,3.42
2022-08-10T07:15:18.651Z,2.90
2022-08-10T07:18:08.247Z,3.42
2022-08-10T07:20:57.601Z,3.53
2022-08-10T07:23:58.339Z,3.65
2022-08-10T07:26:50.829Z,3.20
2022-08-10T07:29:53.942Z,3.30
2022-08-10T07:32:44.901Z,3.35
2022-08-10T07:35:43.004Z,3.33
2022-08-10T07:38:33.156Z,3.42
2022-08-10T07:41:24.206Z,3.88
2022-08-10T07:44:13.141Z,3.25
2022-08-10T07:47:04.157Z,3.65
2022-08-10T07:49:55.762Z,3.30
2022-08-10T07:52:45.919Z,3.42
2022-08-10T07:56:05.738Z,2.75
2022-08-10T07:58:52.507Z,3.15
2022-08-10T08:01:50.719Z,3.03
2022-08-10T08:04:39.821Z,3.40
2022-08-10T08:07:29.357Z,3.10
2022-08-10T08:10:18.875Z,2.75
2022-08-10T08:13:07.040Z,3.28
2022-08-10T08:16:20.730Z,3.20
2022-08-10T08:19:26.682Z,2.75
2022-08-10T08:24:06.311Z,3.63
2022-08-10T08:25:26.616Z,2.70
2022-08-10T08:28:15.691Z,3.22
2022-08-10T08:31:05.140Z,3.03
2022-08-10T08:33:54.460Z,3.08
2022-08-10T08:36:45.880Z,2.70
2022-08-10T08:39:34.138Z,2.85
2022-08-10T08:42:57.619Z,3.13
2022-08-10T08:46:19.591Z,2.47
2022-08-10T08:50:07.472Z,2.47
2022-08-10T08:52:57.271Z,2.50
2022-08-10T08:56:04.063Z,2.80
2022-08-10T08:59:20.884Z,2.55
2022-08-10T09:03:32.314Z,2.92
2022-08-10T09:06:51.697Z,2.20
2022-08-10T09:10:04.959Z,2.38
2022-08-10T09:13:42.857Z,2.17
2022-08-10T09:17:11.283Z,2.35
2022-08-10T09:20:22.780Z,2.08
2022-08-10T09:24:04.628Z,2.08
2022-08-10T09:26:46.079Z,2.03
2022-08-10T09:29:44.166Z,2.40
2022-08-10T09:36:16.275Z,1.60
2022-08-10T09:36:22.794Z,2.10
2022-08-10T09:40:55.915Z,2.10
2022-08-10T09:43:24.884Z,1.58
2022-08-10T09:46:43.398Z,1.92
2022-08-10T09:49:56.249Z,2.20
2022-08-10T09:53:11.312Z,1.80
2022-08-10T09:56:28.876Z,2.08
2022-08-10T10:00:00.609Z,2.00
2022-08-10T10:03:19.697Z,1.80
2022-08-10T10:06:38.743Z,1.77
2022-08-10T10:09:39.825Z,1.70
2022-08-10T10:12:51.311Z,1.77
2022-08-10T10:16:27.828Z,2.00
2022-08-10T10:19:40.376Z,1.67
2022-08-10T10:22:53.254Z,2.25
2022-08-10T10:26:13.006Z,1.70
2022-08-10T10:29:57.612Z,1.73
2022-08-10T10:33:25.687Z,1.67
2022-08-10T10:36:21.662Z,2.17
2022-08-10T10:39:24.113Z,1.40
2022-08-10T10:42:56.434Z,1.65
2022-08-10T10:46:28.163Z,1.73
2022-08-10T10:49:45.205Z,2.05
2022-08-10T10:53:19.185Z,2.30
2022-08-10T10:56:43.645Z,1.80
2022-08-10T10:59:55.986Z,1.92
2022-08-10T11:03:24.106Z,2.13
2022-08-10T11:06:57.299Z,2.05
2022-08-10T11:10:08.983Z,1.90
2022-08-10T11:14:25.621Z,1.92
2022-08-10T11:17:27.475Z,2.05
2022-08-10T11:20:33.201Z,1.73
2022-08-10T11:23:34.888Z,2.20
2022-08-10T11:26:44.467Z,2.10
2022-08-10T11:29:59.583Z,1.92
2022-08-10T11:33:14.756Z,2.28
2022-08-10T11:37:02.847Z,2.28
2022-08-10T11:40:07.357Z,2.13
2022-08-10T11:43:19.278Z,1.55
2022-08-10T11:46:31.027Z,1.98
2022-08-10T11:49:33.515Z,1.88
2022-08-10T11:52:50.409Z,2.10
2022-08-10T11:55:38.263Z,1.60
2022-08-10T11:58:51.440Z,1.92
2022-08-10T12:01:39.717Z,2.00
2022-08-10T12:04:29.613Z,2.10
2022-08-10T12:10:02.460Z,1.70
2022-08-10T12:10:30.655Z,2.10
2022-08-10T12:13:35.491Z,2.03
2022-08-10T12:16:29.679Z,1.95
2022-08-10T12:19:59.533Z,2.05
2022-08-10T12:23:02.177Z,2.10
2022-08-10T12:25:58.749Z,1.83
2022-08-10T12:28:56.894Z,2.00
2022-08-10T12:32:11.203Z,1.90
2022-08-10T12:38:57.170Z,2.13
2022-08-10T12:42:01.857Z,2.10
2022-08-10T12:45:06.509Z,2.03
2022-08-10T12:48:24.614Z,2.00
2022-08-10T12:51:30.445Z,2.42
2022-08-10T12:54:31.824Z,2.10
2022-08-10T12:57:28.657Z,2.10
2022-08-10T13:00:17.761Z,2.00
2022-08-10T13:03:08.057Z,1.90
2022-08-10T13:06:03.884Z,2.15
2022-08-10T13:09:08.702Z,2.45
2022-08-10T13:12:39.289Z,2.13
2022-08-10T13:15:49.796Z,2.17
2022-08-10T13:18:40.792Z,1.90
2022-08-10T13:21:36.753Z,2.17
2022-08-10T13:24:33.815Z,1.80
2022-08-10T13:28:00.970Z,1.83
2022-08-10T13:30:49.787Z,1.98
2022-08-10T13:34:39.869Z,2.28
2022-08-10T13:37:02.745Z,1.98
2022-08-10T13:39:59.659Z,2.13
2022-08-10T13:42:51.600Z,2.10
2022-08-10T13:45:49.345Z,2.20
2022-08-10T13:48:40.453Z,2.17
2022-08-10T13:51:56.359Z,2.35
2022-08-10T13:54:42.820Z,2.50
2022-08-10T13:57:35.037Z,2.10
2022-08-10T14:00:38.652Z,2.28
2022-08-10T14:03:31.029Z,1.52
2022-08-10T14:06:21.134Z,2.00
2022-08-10T14:09:12.514Z,1.98
2022-08-10T14:12:01.779Z,1.95
2022-08-10T14:14:52.718Z,1.98
2022-08-10T14:17:44.927Z,1.90
2022-08-10T14:20:36.196Z,2.08
2022-08-10T14:23:24.192Z,2.17
2022-08-10T14:26:17.855Z,2.63
2022-08-10T14:29:18.846Z,1.73
2022-08-10T14:32:15.996Z,2.10
2022-08-10T14:36:20.246Z,2.17
2022-08-10T14:38:22.304Z,2.33
2022-08-10T14:42:01.294Z,2.10
2022-08-10T14:44:53.459Z,2.30
2022-08-10T14:47:42.464Z,2.05
2022-08-10T14:50:55.799Z,1.70
2022-08-10T14:53:51.877Z,2.00
2022-08-10T14:56:44.266Z,1.88
2022-08-10T15:00:25.095Z,1.77
2022-08-10T15:02:52.873Z,1.80
2022-08-10T15:05:45.448Z,2.10
2022-08-10T15:08:36.970Z,2.13
2022-08-10T15:12:12.974Z,1.90
2022-08-10T15:14:43.051Z,2.03
2022-08-10T15:17:39.554Z,2.13
2022-08-10T15:20:29.710Z,2.22
2022-08-10T15:23:30.047Z,1.88
2022-08-10T15:26:22.013Z,1.73
2022-08-10T15:29:25.056Z,2.15
2022-08-10T15:32:32.583Z,1.80
2022-08-10T15:35:43.668Z,2.00
2022-08-10T15:38:36.693Z,2.03
2022-08-10T15:41:59.383Z,1.80
2022-08-10T15:44:53.357Z,1.70
2022-08-10T15:47:46.325Z,2.00
2022-08-10T15:50:42.950Z,2.40
2022-08-10T15:53:49.347Z,1.77
2022-08-10T15:56:49.044Z,1.83
2022-08-10T16:00:09.513Z,1.88
2022-08-10T16:03:03.732Z,2.20
2022-08-10T16:06:02.589Z,1.95
2022-08-10T16:10:22.306Z,1.98
2022-08-10T16:12:32.488Z,2.40
2022-08-10T16:15:24.007Z,2.10
2022-08-10T16:18:14.620Z,2.15
2022-08-10T16:21:13.232Z,2.00
2022-08-10T16:24:14.913Z,2.40
2022-08-10T16:27:07.538Z,2.15
2022-08-10T16:30:01.872Z,2.22
2022-08-10T16:32:50.322Z,2.15
2022-08-10T16:35:41.249Z,1.90
2022-08-10T16:38:40.427Z,1.90
2022-08-10T16:42:02.744Z,2.30
2022-08-10T16:44:44.522Z,2.20
2022-08-10T16:47:37.223Z,2.55
2022-08-10T16:50:38.394Z,1.92
2022-08-10T16:53:28.263Z,2.80
2022-08-10T16:56:17.343Z,2.20
2022-08-10T16:59:06.804Z,3.15
2022-08-10T17:01:55.994Z,2.50
2022-08-10T17:04:46.689Z,2.22
2022-08-10T17:07:36.703Z,2.22
2022-08-10T17:10:24.925Z,2.50
2022-08-10T17:13:20.748Z,2.15
2022-08-10T17:16:10.801Z,2.20
2022-08-10T17:18:58.948Z,2.20
2022-08-10T17:22:00.174Z,2.90
2022-08-10T17:25:15.619Z,2.50
2022-08-10T17:28:09.680Z,2.13
2022-08-10T17:31:24.126Z,2.40
2022-08-10T17:34:32.410Z,2.38
2022-08-10T17:37:24.775Z,2.47
2022-08-10T17:40:21.818Z,2.55
2022-08-10T17:43:58.373Z,2.00
2022-08-10T17:46:38.561Z,2.38
2022-08-10T17:49:26.715Z,2.40
2022-08-10T17:52:21.702Z,2.38
2022-08-10T17:55:11.474Z,2.42
2022-08-10T17:58:12.210Z,3.05
2022-08-10T18:01:38.645Z,2.50
2022-08-10T18:04:19.576Z,2.55
2022-08-10T18:07:09.078Z,2.45
2022-08-10T18:09:58.404Z,2.80
2022-08-10T18:12:55.447Z,2.78
2022-08-10T18:15:44.758Z,2.67
2022-08-10T18:18:33.526Z,3.10
2022-08-10T18:21:27.078Z,2.40
2022-08-10T18:24:21.207Z,2.78
2022-08-10T18:27:09.848Z,2.88
2022-08-10T18:30:04.974Z,2.80
2022-08-10T18:32:56.749Z,2.70
2022-08-10T18:35:46.253Z,2.88
2022-08-10T18:38:37.507Z,3.17
2022-08-10T18:42:04.626Z,2.90
2022-08-10T18:45:12.195Z,2.95
2022-08-10T18:48:18.610Z,2.95
2022-08-10T18:51:07.934Z,3.03
2022-08-10T18:54:08.309Z,3.22
2022-08-10T18:57:41.669Z,3.13
2022-08-10T19:00:50.279Z,3.30
2022-08-10T19:03:54.339Z,3.10
2022-08-10T19:07:21.539Z,3.55
2022-08-10T19:11:10.148Z,3.67
2022-08-10T19:14:16.661Z,3.53
2022-08-10T19:17:20.321Z,3.47
2022-08-10T19:20:32.874Z,3.13
2022-08-10T19:23:56.472Z,3.10
2022-08-10T19:26:55.112Z,3.00
2022-08-10T19:30:11.588Z,2.80
2022-08-10T19:33:50.549Z,3.10
2022-08-10T19:36:52.607Z,3.40
2022-08-10T19:39:57.172Z,2.97
2022-08-10T19:44:00.092Z,3.10
2022-08-10T19:47:01.242Z,3.10
2022-08-10T19:50:04.617Z,3.25
2022-08-10T19:53:29.835Z,2.97
2022-08-10T19:57:11.720Z,3.28
2022-08-10T20:00:19.668Z,3.15
2022-08-10T20:03:15.636Z,3.17
2022-08-10T20:06:29.997Z,3.78
2022-08-10T20:09:38.753Z,3.50
2022-08-10T20:12:54.261Z,3.38
2022-08-10T20:15:57.489Z,2.95
2022-08-10T20:19:13.373Z,4.38
2022-08-10T20:22:08.813Z,3.22
2022-08-10T20:25:11.478Z,2.97
2022-08-10T20:28:13.324Z,3.03
2022-08-10T20:31:23.115Z,3.08
2022-08-10T20:34:25.982Z,3.40
2022-08-10T20:38:01.955Z,3.40
2022-08-10T20:40:49.648Z,3.20
2022-08-10T20:43:48.274Z,3.03
2022-08-10T20:46:48.342Z,3.30
2022-08-10T20:49:46.300Z,3.42
2022-08-10T20:52:36.794Z,3.45
2022-08-10T20:55:52.654Z,3.50
2022-08-10T20:59:14.614Z,3.33
2022-08-10T21:02:47.843Z,3.17
2022-08-10T21:06:42.632Z,3.30
2022-08-10T21:09:55.676Z,3.30
2022-08-10T21:13:13.287Z,3.13
2022-08-10T21:16:20.503Z,3.35
2022-08-10T21:22:29.390Z,3.50
2022-08-10T21:25:30.016Z,3.13
2022-08-10T21:29:01.374Z,3.65
2022-08-10T21:32:12.480Z,3.28
2022-08-10T21:35:36.263Z,3.53
2022-08-10T21:38:55.116Z,3.45
2022-08-10T21:42:58.346Z,3.13
2022-08-10T21:46:29.978Z,3.33
2022-08-10T21:49:57.363Z,3.63
2022-08-10T21:53:44.023Z,3.20
2022-08-10T21:57:17.863Z,3.15
2022-08-10T22:00:32.139Z,3.30
2022-08-10T22:03:40.143Z,4.00
2022-08-10T22:06:52.509Z,3.03
2022-08-10T22:10:03.973Z,3.70
2022-08-10T22:13:13.252Z,3.45
2022-08-10T22:16:25.468Z,3.72
2022-08-10T22:19:34.034Z,3.20
2022-08-10T22:23:01.006Z,3.55
2022-08-10T22:27:00.591Z,3.53
2022-08-10T22:30:13.109Z,3.45
2022-08-10T22:33:47.977Z,3.00
2022-08-10T22:37:06.355Z,3.10
2022-08-10T22:40:51.427Z,3.33
2022-08-10T22:43:59.432Z,3.20
2022-08-10T22:47:08.391Z,3.28
2022-08-10T22:49:57.162Z,3.10
2022-08-10T22:53:03.769Z,3.33
2022-08-10T22:56:15.419Z,3.67
2022-08-10T22:59:07.796Z,3.83
2022-08-10T23:02:09.206Z,3.78
2022-08-10T23:05:09.355Z,3.63
2022-08-10T23:08:12.505Z,3.05
2022-08-10T23:11:30.947Z,3.80
2022-08-10T23:14:20.870Z,4.05
2022-08-10T23:18:00.556Z,3.30
2022-08-10T23:20:48.456Z,3.30
2022-08-10T23:23:40.062Z,3.65
2022-08-10T23:26:31.093Z,3.58
2022-08-10T23:29:23.237Z,3.45
2022-08-10T23:32:11.531Z,3.22
2022-08-10T23:36:04.568Z,3.78
2022-08-10T23:38:27.249Z,3.50
2022-08-10T23:41:16.080Z,4.28
2022-08-10T23:44:04.832Z,3.95
2022-08-10T23:46:53.665Z,3.53
2022-08-10T23:49:44.650Z,3.70
2022-08-10T23:52:34.378Z,4.03
2022-08-10T23:55:27.306Z,3.28
2022-08-10T23:58:31.596Z,3.78
